sensor_id;sensor_type;location;lat;lon;timestamp;P1;durP1;ratioP1;P2;durP2;ratioP2
77089;SDS011;66028;53.558;9.950;2023-12-20T00:02:20;10.67;;;1.60;;
77089;SDS011;66028;53.558;9.950;2023-12-20T00:04:46;10.30;;;1.57;;
77089;SDS011;66028;53.558;9.950;2023-12-20T00:07:11;9.67;;;1.37;;
77089;SDS011;66028;53.558;9.950;2023-12-20T00:09:36;8.80;;;1.80;;
77089;SDS011;66028;53.558;9.950;2023-12-20T00:12:01;5.27;;;0.77;;
77089;SDS011;66028;53.558;9.950;2023-12-20T00:14:27;6.37;;;0.83;;
77089;SDS011;66028;53.558;9.950;2023-12-20T00:16:52;7.05;;;1.33;;
77089;SDS011;66028;53.558;9.950;2023-12-20T00:19:18;4.57;;;0.80;;
77089;SDS011;66028;53.558;9.950;2023-12-20T00:21:43;7.93;;;1.20;;
77089;SDS011;66028;53.558;9.950;2023-12-20T00:24:08;9.33;;;1.37;;
77089;SDS011;66028;53.558;9.950;2023-12-20T00:26:33;7.90;;;1.43;;
77089;SDS011;66028;53.558;9.950;2023-12-20T00:28:59;10.83;;;1.50;;
77089;SDS011;66028;53.558;9.950;2023-12-20T00:31:24;6.63;;;1.50;;
77089;SDS011;66028;53.558;9.950;2023-12-20T00:33:49;6.77;;;1.33;;
77089;SDS011;66028;53.558;9.950;2023-12-20T00:36:15;4.93;;;1.20;;
77089;SDS011;66028;53.558;9.950;2023-12-20T00:38:40;7.23;;;1.17;;
77089;SDS011;66028;53.558;9.950;2023-12-20T00:41:05;7.70;;;1.07;;
77089;SDS011;66028;53.558;9.950;2023-12-20T00:43:30;5.82;;;1.27;;
77089;SDS011;66028;53.558;9.950;2023-12-20T00:45:56;7.70;;;1.53;;
77089;SDS011;66028;53.558;9.950;2023-12-20T00:48:22;8.32;;;1.77;;
77089;SDS011;66028;53.558;9.950;2023-12-20T00:50:47;7.33;;;1.20;;
77089;SDS011;66028;53.558;9.950;2023-12-20T00:53:12;10.90;;;1.90;;
77089;SDS011;66028;53.558;9.950;2023-12-20T00:55:38;7.80;;;1.80;;
77089;SDS011;66028;53.558;9.950;2023-12-20T00:58:04;16.83;;;1.70;;
77089;SDS011;66028;53.558;9.950;2023-12-20T01:00:29;9.20;;;1.00;;
77089;SDS011;66028;53.558;9.950;2023-12-20T01:02:54;11.70;;;1.20;;
77089;SDS011;66028;53.558;9.950;2023-12-20T01:05:19;5.17;;;0.93;;
77089;SDS011;66028;53.558;9.950;2023-12-20T01:07:48;4.68;;;1.05;;
77089;SDS011;66028;53.558;9.950;2023-12-20T01:10:13;8.60;;;1.30;;
77089;SDS011;66028;53.558;9.950;2023-12-20T01:12:38;6.97;;;0.70;;
77089;SDS011;66028;53.558;9.950;2023-12-20T01:15:04;16.50;;;0.88;;
77089;SDS011;66028;53.558;9.950;2023-12-20T01:17:29;11.18;;;1.25;;
77089;SDS011;66028;53.558;9.950;2023-12-20T01:19:55;7.70;;;1.90;;
77089;SDS011;66028;53.558;9.950;2023-12-20T01:22:20;9.70;;;1.17;;
77089;SDS011;66028;53.558;9.950;2023-12-20T01:24:45;5.00;;;1.20;;
77089;SDS011;66028;53.558;9.950;2023-12-20T01:27:10;7.47;;;0.90;;
77089;SDS011;66028;53.558;9.950;2023-12-20T01:29:36;8.53;;;0.80;;
77089;SDS011;66028;53.558;9.950;2023-12-20T01:32:01;9.63;;;1.23;;
77089;SDS011;66028;53.558;9.950;2023-12-20T01:34:26;7.13;;;1.20;;
77089;SDS011;66028;53.558;9.950;2023-12-20T01:36:51;8.20;;;1.00;;
77089;SDS011;66028;53.558;9.950;2023-12-20T01:39:17;12.00;;;1.70;;
77089;SDS011;66028;53.558;9.950;2023-12-20T01:41:42;9.82;;;0.80;;
77089;SDS011;66028;53.558;9.950;2023-12-20T01:44:08;10.17;;;1.20;;
77089;SDS011;66028;53.558;9.950;2023-12-20T01:46:33;10.37;;;1.37;;
77089;SDS011;66028;53.558;9.950;2023-12-20T01:48:59;6.22;;;0.82;;
77089;SDS011;66028;53.558;9.950;2023-12-20T01:51:24;9.75;;;1.77;;
77089;SDS011;66028;53.558;9.950;2023-12-20T01:53:52;13.18;;;1.10;;
77089;SDS011;66028;53.558;9.950;2023-12-20T01:56:19;10.00;;;1.17;;
77089;SDS011;66028;53.558;9.950;2023-12-20T01:58:45;9.95;;;1.02;;
77089;SDS011;66028;53.558;9.950;2023-12-20T02:01:12;9.30;;;1.13;;
77089;SDS011;66028;53.558;9.950;2023-12-20T02:03:38;13.43;;;1.35;;
77089;SDS011;66028;53.558;9.950;2023-12-20T02:06:05;6.80;;;0.90;;
77089;SDS011;66028;53.558;9.950;2023-12-20T02:08:32;4.53;;;1.30;;
77089;SDS011;66028;53.558;9.950;2023-12-20T02:10:57;8.70;;;1.37;;
77089;SDS011;66028;53.558;9.950;2023-12-20T02:13:23;10.93;;;1.42;;
77089;SDS011;66028;53.558;9.950;2023-12-20T02:15:48;8.70;;;2.13;;
77089;SDS011;66028;53.558;9.950;2023-12-20T02:18:13;9.20;;;1.13;;
77089;SDS011;66028;53.558;9.950;2023-12-20T02:20:41;9.23;;;1.08;;
77089;SDS011;66028;53.558;9.950;2023-12-20T02:23:07;6.63;;;1.00;;
77089;SDS011;66028;53.558;9.950;2023-12-20T02:25:32;9.83;;;1.10;;
77089;SDS011;66028;53.558;9.950;2023-12-20T02:27:57;8.20;;;1.27;;
77089;SDS011;66028;53.558;9.950;2023-12-20T02:30:22;7.73;;;1.60;;
77089;SDS011;66028;53.558;9.950;2023-12-20T02:32:48;9.82;;;1.08;;
77089;SDS011;66028;53.558;9.950;2023-12-20T02:35:15;11.63;;;2.72;;
77089;SDS011;66028;53.558;9.950;2023-12-20T02:37:40;4.27;;;0.90;;
77089;SDS011;66028;53.558;9.950;2023-12-20T02:40:05;8.27;;;1.57;;
77089;SDS011;66028;53.558;9.950;2023-12-20T02:42:31;10.55;;;1.95;;
77089;SDS011;66028;53.558;9.950;2023-12-20T02:44:56;8.03;;;0.83;;
77089;SDS011;66028;53.558;9.950;2023-12-20T02:47:22;8.40;;;1.03;;
77089;SDS011;66028;53.558;9.950;2023-12-20T02:49:47;4.23;;;1.03;;
77089;SDS011;66028;53.558;9.950;2023-12-20T02:52:12;8.77;;;1.10;;
77089;SDS011;66028;53.558;9.950;2023-12-20T02:54:37;14.63;;;1.77;;
77089;SDS011;66028;53.558;9.950;2023-12-20T02:57:03;4.47;;;0.70;;
77089;SDS011;66028;53.558;9.950;2023-12-20T02:59:28;9.77;;;1.08;;
77089;SDS011;66028;53.558;9.950;2023-12-20T03:01:53;5.53;;;1.07;;
77089;SDS011;66028;53.558;9.950;2023-12-20T03:04:19;9.20;;;1.07;;
77089;SDS011;66028;53.558;9.950;2023-12-20T03:06:44;7.83;;;1.07;;
77089;SDS011;66028;53.558;9.950;2023-12-20T03:09:09;5.67;;;1.17;;
77089;SDS011;66028;53.558;9.950;2023-12-20T03:11:35;6.60;;;1.20;;
77089;SDS011;66028;53.558;9.950;2023-12-20T03:14:00;8.37;;;1.37;;
77089;SDS011;66028;53.558;9.950;2023-12-20T03:16:25;9.83;;;1.53;;
77089;SDS011;66028;53.558;9.950;2023-12-20T03:18:50;17.67;;;4.73;;
77089;SDS011;66028;53.558;9.950;2023-12-20T03:21:16;15.53;;;2.57;;
77089;SDS011;66028;53.558;9.950;2023-12-20T03:23:41;16.30;;;2.70;;
77089;SDS011;66028;53.558;9.950;2023-12-20T03:26:07;14.35;;;4.53;;
77089;SDS011;66028;53.558;9.950;2023-12-20T03:30:58;9.60;;;2.03;;
77089;SDS011;66028;53.558;9.950;2023-12-20T03:33:23;13.57;;;2.20;;
77089;SDS011;66028;53.558;9.950;2023-12-20T03:35:48;8.87;;;1.30;;
77089;SDS011;66028;53.558;9.950;2023-12-20T03:38:14;14.07;;;2.50;;
77089;SDS011;66028;53.558;9.950;2023-12-20T03:40:39;14.60;;;2.60;;
77089;SDS011;66028;53.558;9.950;2023-12-20T03:43:04;11.90;;;2.53;;
77089;SDS011;66028;53.558;9.950;2023-12-20T03:45:29;8.20;;;1.70;;
77089;SDS011;66028;53.558;9.950;2023-12-20T03:47:55;7.67;;;2.33;;
77089;SDS011;66028;53.558;9.950;2023-12-20T03:50:24;12.80;;;2.45;;
77089;SDS011;66028;53.558;9.950;2023-12-20T03:52:50;13.45;;;3.95;;
77089;SDS011;66028;53.558;9.950;2023-12-20T03:55:15;11.60;;;2.42;;
77089;SDS011;66028;53.558;9.950;2023-12-20T03:57:41;15.43;;;3.17;;
77089;SDS011;66028;53.558;9.950;2023-12-20T04:00:09;10.07;;;1.30;;
77089;SDS011;66028;53.558;9.950;2023-12-20T04:02:38;9.70;;;2.45;;
77089;SDS011;66028;53.558;9.950;2023-12-20T04:05:05;8.07;;;2.38;;
77089;SDS011;66028;53.558;9.950;2023-12-20T04:07:31;11.15;;;2.35;;
77089;SDS011;66028;53.558;9.950;2023-12-20T04:09:56;15.13;;;1.92;;
77089;SDS011;66028;53.558;9.950;2023-12-20T04:12:21;13.93;;;1.83;;
77089;SDS011;66028;53.558;9.950;2023-12-20T04:14:47;4.57;;;1.03;;
77089;SDS011;66028;53.558;9.950;2023-12-20T04:17:12;5.50;;;1.27;;
77089;SDS011;66028;53.558;9.950;2023-12-20T04:19:37;10.17;;;1.30;;
77089;SDS011;66028;53.558;9.950;2023-12-20T04:22:03;9.87;;;2.30;;
77089;SDS011;66028;53.558;9.950;2023-12-20T04:24:28;6.53;;;0.85;;
77089;SDS011;66028;53.558;9.950;2023-12-20T04:26:53;8.63;;;1.57;;
77089;SDS011;66028;53.558;9.950;2023-12-20T04:29:19;6.53;;;1.30;;
77089;SDS011;66028;53.558;9.950;2023-12-20T04:31:44;5.80;;;1.30;;
77089;SDS011;66028;53.558;9.950;2023-12-20T04:34:09;7.13;;;1.27;;
77089;SDS011;66028;53.558;9.950;2023-12-20T04:36:34;10.30;;;1.37;;
77089;SDS011;66028;53.558;9.950;2023-12-20T04:39:00;6.43;;;1.20;;
77089;SDS011;66028;53.558;9.950;2023-12-20T04:41:25;15.67;;;1.57;;
77089;SDS011;66028;53.558;9.950;2023-12-20T04:43:52;7.45;;;0.95;;
77089;SDS011;66028;53.558;9.950;2023-12-20T04:46:17;10.87;;;1.03;;
77089;SDS011;66028;53.558;9.950;2023-12-20T04:48:43;6.17;;;1.20;;
77089;SDS011;66028;53.558;9.950;2023-12-20T04:51:08;6.73;;;0.97;;
77089;SDS011;66028;53.558;9.950;2023-12-20T04:53:33;9.57;;;1.20;;
77089;SDS011;66028;53.558;9.950;2023-12-20T04:55:58;9.17;;;1.30;;
77089;SDS011;66028;53.558;9.950;2023-12-20T04:58:24;9.17;;;1.47;;
77089;SDS011;66028;53.558;9.950;2023-12-20T05:00:49;7.87;;;1.10;;
77089;SDS011;66028;53.558;9.950;2023-12-20T05:03:14;13.03;;;1.40;;
77089;SDS011;66028;53.558;9.950;2023-12-20T05:05:39;8.93;;;1.63;;
77089;SDS011;66028;53.558;9.950;2023-12-20T05:08:05;18.07;;;1.93;;
77089;SDS011;66028;53.558;9.950;2023-12-20T05:10:30;9.82;;;1.42;;
77089;SDS011;66028;53.558;9.950;2023-12-20T05:12:55;7.03;;;1.47;;
77089;SDS011;66028;53.558;9.950;2023-12-20T05:15:21;9.43;;;1.20;;
77089;SDS011;66028;53.558;9.950;2023-12-20T05:17:46;8.83;;;1.27;;
77089;SDS011;66028;53.558;9.950;2023-12-20T05:20:11;12.43;;;3.07;;
77089;SDS011;66028;53.558;9.950;2023-12-20T05:22:36;6.53;;;1.40;;
77089;SDS011;66028;53.558;9.950;2023-12-20T05:25:02;8.33;;;1.10;;
77089;SDS011;66028;53.558;9.950;2023-12-20T05:27:27;10.43;;;1.45;;
77089;SDS011;66028;53.558;9.950;2023-12-20T05:29:52;11.80;;;1.58;;
77089;SDS011;66028;53.558;9.950;2023-12-20T05:32:18;7.73;;;1.10;;
77089;SDS011;66028;53.558;9.950;2023-12-20T05:34:43;3.63;;;1.10;;
77089;SDS011;66028;53.558;9.950;2023-12-20T05:37:08;12.60;;;2.13;;
77089;SDS011;66028;53.558;9.950;2023-12-20T05:39:34;9.70;;;2.20;;
77089;SDS011;66028;53.558;9.950;2023-12-20T05:41:59;11.47;;;1.47;;
77089;SDS011;66028;53.558;9.950;2023-12-20T05:44:24;10.32;;;2.08;;
77089;SDS011;66028;53.558;9.950;2023-12-20T05:46:50;7.43;;;1.80;;
77089;SDS011;66028;53.558;9.950;2023-12-20T05:49:15;10.70;;;1.43;;
77089;SDS011;66028;53.558;9.950;2023-12-20T05:51:40;11.97;;;2.07;;
77089;SDS011;66028;53.558;9.950;2023-12-20T05:54:05;10.67;;;2.07;;
77089;SDS011;66028;53.558;9.950;2023-12-20T05:56:31;8.30;;;2.20;;
77089;SDS011;66028;53.558;9.950;2023-12-20T05:58:56;9.73;;;1.38;;
77089;SDS011;66028;53.558;9.950;2023-12-20T06:01:23;5.65;;;1.35;;
77089;SDS011;66028;53.558;9.950;2023-12-20T06:03:49;13.63;;;1.50;;
77089;SDS011;66028;53.558;9.950;2023-12-20T06:06:14;10.10;;;2.53;;
77089;SDS011;66028;53.558;9.950;2023-12-20T06:08:40;10.03;;;1.23;;
77089;SDS011;66028;53.558;9.950;2023-12-20T06:11:05;8.25;;;1.40;;
77089;SDS011;66028;53.558;9.950;2023-12-20T06:13:31;10.77;;;1.57;;
77089;SDS011;66028;53.558;9.950;2023-12-20T06:15:56;6.57;;;1.63;;
77089;SDS011;66028;53.558;9.950;2023-12-20T06:18:22;11.13;;;2.00;;
77089;SDS011;66028;53.558;9.950;2023-12-20T06:20:47;5.05;;;1.25;;
77089;SDS011;66028;53.558;9.950;2023-12-20T06:23:13;11.27;;;1.80;;
77089;SDS011;66028;53.558;9.950;2023-12-20T06:25:38;9.40;;;1.67;;
77089;SDS011;66028;53.558;9.950;2023-12-20T06:28:03;8.23;;;1.87;;
77089;SDS011;66028;53.558;9.950;2023-12-20T06:30:29;10.15;;;1.58;;
77089;SDS011;66028;53.558;9.950;2023-12-20T06:32:55;5.83;;;1.37;;
77089;SDS011;66028;53.558;9.950;2023-12-20T06:35:22;6.05;;;1.83;;
77089;SDS011;66028;53.558;9.950;2023-12-20T06:37:47;7.45;;;1.60;;
77089;SDS011;66028;53.558;9.950;2023-12-20T06:40:13;13.00;;;2.07;;
77089;SDS011;66028;53.558;9.950;2023-12-20T06:42:38;9.60;;;1.63;;
77089;SDS011;66028;53.558;9.950;2023-12-20T06:45:03;10.97;;;1.77;;
77089;SDS011;66028;53.558;9.950;2023-12-20T06:47:29;8.63;;;1.58;;
77089;SDS011;66028;53.558;9.950;2023-12-20T06:49:54;14.53;;;1.60;;
77089;SDS011;66028;53.558;9.950;2023-12-20T06:52:20;4.43;;;1.20;;
77089;SDS011;66028;53.558;9.950;2023-12-20T06:54:45;5.00;;;1.10;;
77089;SDS011;66028;53.558;9.950;2023-12-20T06:57:10;8.25;;;1.38;;
77089;SDS011;66028;53.558;9.950;2023-12-20T06:59:40;12.53;;;1.70;;
77089;SDS011;66028;53.558;9.950;2023-12-20T07:02:05;9.80;;;1.73;;
77089;SDS011;66028;53.558;9.950;2023-12-20T07:04:31;5.55;;;1.40;;
77089;SDS011;66028;53.558;9.950;2023-12-20T07:06:56;5.23;;;1.70;;
77089;SDS011;66028;53.558;9.950;2023-12-20T07:09:25;7.20;;;1.38;;
77089;SDS011;66028;53.558;9.950;2023-12-20T07:11:50;9.48;;;2.00;;
77089;SDS011;66028;53.558;9.950;2023-12-20T07:14:15;13.83;;;1.97;;
77089;SDS011;66028;53.558;9.950;2023-12-20T07:16:41;3.03;;;0.83;;
77089;SDS011;66028;53.558;9.950;2023-12-20T07:19:06;7.07;;;1.50;;
77089;SDS011;66028;53.558;9.950;2023-12-20T07:21:31;11.10;;;1.73;;
77089;SDS011;66028;53.558;9.950;2023-12-20T07:23:56;9.27;;;1.90;;
77089;SDS011;66028;53.558;9.950;2023-12-20T07:26:22;6.80;;;1.55;;
77089;SDS011;66028;53.558;9.950;2023-12-20T07:28:48;11.40;;;1.52;;
77089;SDS011;66028;53.558;9.950;2023-12-20T07:31:14;9.80;;;1.93;;
77089;SDS011;66028;53.558;9.950;2023-12-20T07:33:40;7.95;;;1.67;;
77089;SDS011;66028;53.558;9.950;2023-12-20T07:36:06;3.90;;;0.97;;
77089;SDS011;66028;53.558;9.950;2023-12-20T07:38:31;12.38;;;1.60;;
77089;SDS011;66028;53.558;9.950;2023-12-20T07:40:56;10.93;;;1.63;;
77089;SDS011;66028;53.558;9.950;2023-12-20T07:43:21;11.33;;;1.93;;
77089;SDS011;66028;53.558;9.950;2023-12-20T07:45:47;7.30;;;1.70;;
77089;SDS011;66028;53.558;9.950;2023-12-20T07:48:12;8.03;;;2.17;;
77089;SDS011;66028;53.558;9.950;2023-12-20T07:50:37;8.20;;;1.40;;
77089;SDS011;66028;53.558;9.950;2023-12-20T07:53:03;9.73;;;2.20;;
77089;SDS011;66028;53.558;9.950;2023-12-20T07:55:28;12.32;;;2.10;;
77089;SDS011;66028;53.558;9.950;2023-12-20T07:57:55;12.07;;;2.35;;
77089;SDS011;66028;53.558;9.950;2023-12-20T08:00:20;9.23;;;1.63;;
77089;SDS011;66028;53.558;9.950;2023-12-20T08:02:45;11.90;;;1.50;;
77089;SDS011;66028;53.558;9.950;2023-12-20T08:05:11;14.30;;;1.90;;
77089;SDS011;66028;53.558;9.950;2023-12-20T08:07:36;11.20;;;1.88;;
77089;SDS011;66028;53.558;9.950;2023-12-20T08:10:02;13.82;;;2.20;;
77089;SDS011;66028;53.558;9.950;2023-12-20T08:12:27;13.38;;;2.35;;
77089;SDS011;66028;53.558;9.950;2023-12-20T08:14:53;11.13;;;2.03;;
77089;SDS011;66028;53.558;9.950;2023-12-20T08:17:19;8.27;;;2.45;;
77089;SDS011;66028;53.558;9.950;2023-12-20T08:19:44;13.20;;;1.85;;
77089;SDS011;66028;53.558;9.950;2023-12-20T08:22:09;11.43;;;1.40;;
77089;SDS011;66028;53.558;9.950;2023-12-20T08:24:35;6.97;;;2.37;;
77089;SDS011;66028;53.558;9.950;2023-12-20T08:27:00;12.67;;;2.23;;
77089;SDS011;66028;53.558;9.950;2023-12-20T08:29:25;13.90;;;2.07;;
77089;SDS011;66028;53.558;9.950;2023-12-20T08:31:54;8.67;;;1.47;;
77089;SDS011;66028;53.558;9.950;2023-12-20T08:34:20;9.40;;;2.33;;
77089;SDS011;66028;53.558;9.950;2023-12-20T08:36:45;9.53;;;1.80;;
77089;SDS011;66028;53.558;9.950;2023-12-20T08:39:10;15.03;;;1.63;;
77089;SDS011;66028;53.558;9.950;2023-12-20T08:41:36;13.65;;;2.13;;
77089;SDS011;66028;53.558;9.950;2023-12-20T08:44:02;12.93;;;2.75;;
77089;SDS011;66028;53.558;9.950;2023-12-20T08:46:27;11.63;;;2.05;;
77089;SDS011;66028;53.558;9.950;2023-12-20T08:48:52;12.27;;;2.23;;
77089;SDS011;66028;53.558;9.950;2023-12-20T08:51:18;11.43;;;2.00;;
77089;SDS011;66028;53.558;9.950;2023-12-20T08:53:44;20.02;;;1.88;;
77089;SDS011;66028;53.558;9.950;2023-12-20T08:58:35;5.80;;;1.00;;
77089;SDS011;66028;53.558;9.950;2023-12-20T09:01:01;8.75;;;1.70;;
77089;SDS011;66028;53.558;9.950;2023-12-20T09:03:26;5.82;;;1.30;;
77089;SDS011;66028;53.558;9.950;2023-12-20T09:05:51;10.47;;;1.40;;
77089;SDS011;66028;53.558;9.950;2023-12-20T09:08:17;9.00;;;1.60;;
77089;SDS011;66028;53.558;9.950;2023-12-20T09:10:42;8.47;;;2.07;;
77089;SDS011;66028;53.558;9.950;2023-12-20T09:13:07;8.33;;;1.10;;
77089;SDS011;66028;53.558;9.950;2023-12-20T09:15:33;7.47;;;1.47;;
77089;SDS011;66028;53.558;9.950;2023-12-20T09:17:59;10.35;;;1.75;;
77089;SDS011;66028;53.558;9.950;2023-12-20T09:20:24;8.13;;;1.80;;
77089;SDS011;66028;53.558;9.950;2023-12-20T09:22:49;5.20;;;1.43;;
77089;SDS011;66028;53.558;9.950;2023-12-20T09:25:15;7.70;;;1.73;;
77089;SDS011;66028;53.558;9.950;2023-12-20T09:27:42;9.88;;;2.05;;
77089;SDS011;66028;53.558;9.950;2023-12-20T09:30:07;3.30;;;1.50;;
77089;SDS011;66028;53.558;9.950;2023-12-20T09:32:33;5.47;;;0.80;;
77089;SDS011;66028;53.558;9.950;2023-12-20T09:34:58;4.32;;;0.85;;
77089;SDS011;66028;53.558;9.950;2023-12-20T09:37:27;4.77;;;0.63;;
77089;SDS011;66028;53.558;9.950;2023-12-20T09:39:53;4.72;;;0.68;;
77089;SDS011;66028;53.558;9.950;2023-12-20T09:42:21;4.10;;;0.52;;
77089;SDS011;66028;53.558;9.950;2023-12-20T09:44:52;2.05;;;0.60;;
77089;SDS011;66028;53.558;9.950;2023-12-20T09:47:18;0.33;;;0.13;;
77089;SDS011;66028;53.558;9.950;2023-12-20T09:49:48;1.40;;;0.43;;
77089;SDS011;66028;53.558;9.950;2023-12-20T09:52:13;0.80;;;0.20;;
77089;SDS011;66028;53.558;9.950;2023-12-20T09:54:39;1.45;;;0.10;;
77089;SDS011;66028;53.558;9.950;2023-12-20T09:57:05;2.88;;;0.68;;
77089;SDS011;66028;53.558;9.950;2023-12-20T09:59:31;0.65;;;0.20;;
77089;SDS011;66028;53.558;9.950;2023-12-20T10:01:56;3.80;;;0.40;;
77089;SDS011;66028;53.558;9.950;2023-12-20T10:04:22;3.30;;;0.47;;
77089;SDS011;66028;53.558;9.950;2023-12-20T10:06:48;2.30;;;0.20;;
77089;SDS011;66028;53.558;9.950;2023-12-20T10:09:13;2.23;;;0.53;;
77089;SDS011;66028;53.558;9.950;2023-12-20T10:11:39;2.78;;;0.40;;
77089;SDS011;66028;53.558;9.950;2023-12-20T10:14:05;1.80;;;0.30;;
77089;SDS011;66028;53.558;9.950;2023-12-20T10:16:31;3.15;;;0.20;;
77089;SDS011;66028;53.558;9.950;2023-12-20T10:18:57;1.05;;;0.30;;
77089;SDS011;66028;53.558;9.950;2023-12-20T10:23:51;1.65;;;0.17;;
77089;SDS011;66028;53.558;9.950;2023-12-20T10:26:24;1.20;;;0.13;;
77089;SDS011;66028;53.558;9.950;2023-12-20T10:28:51;1.30;;;0.30;;
77089;SDS011;66028;53.558;9.950;2023-12-20T10:31:25;0.75;;;0.20;;
77089;SDS011;66028;53.558;9.950;2023-12-20T10:34:00;0.82;;;0.25;;
77089;SDS011;66028;53.558;9.950;2023-12-20T10:36:27;5.05;;;0.32;;
77089;SDS011;66028;53.558;9.950;2023-12-20T10:38:57;4.00;;;0.88;;
77089;SDS011;66028;53.558;9.950;2023-12-20T10:41:27;1.25;;;0.20;;
77089;SDS011;66028;53.558;9.950;2023-12-20T10:43:54;5.00;;;1.15;;
77089;SDS011;66028;53.558;9.950;2023-12-20T10:46:21;4.70;;;0.50;;
77089;SDS011;66028;53.558;9.950;2023-12-20T10:48:47;2.10;;;0.33;;
77089;SDS011;66028;53.558;9.950;2023-12-20T10:53:42;3.70;;;0.20;;
77089;SDS011;66028;53.558;9.950;2023-12-20T10:56:08;4.22;;;0.43;;
77089;SDS011;66028;53.558;9.950;2023-12-20T10:58:37;1.80;;;0.43;;
77089;SDS011;66028;53.558;9.950;2023-12-20T11:01:07;4.95;;;1.02;;
77089;SDS011;66028;53.558;9.950;2023-12-20T11:03:34;1.65;;;0.50;;
77089;SDS011;66028;53.558;9.950;2023-12-20T11:06:08;2.72;;;0.45;;
77089;SDS011;66028;53.558;9.950;2023-12-20T11:09:28;3.85;;;0.73;;
77089;SDS011;66028;53.558;9.950;2023-12-20T11:14:29;9.20;;;0.52;;
77089;SDS011;66028;53.558;9.950;2023-12-20T11:17:10;5.07;;;1.17;;
77089;SDS011;66028;53.558;9.950;2023-12-20T11:20:12;7.82;;;0.80;;
77089;SDS011;66028;53.558;9.950;2023-12-20T11:22:33;2.67;;;0.50;;
77089;SDS011;66028;53.558;9.950;2023-12-20T11:25:06;1.40;;;0.30;;
77089;SDS011;66028;53.558;9.950;2023-12-20T11:27:33;3.08;;;0.73;;
77089;SDS011;66028;53.558;9.950;2023-12-20T11:29:59;5.32;;;0.88;;
77089;SDS011;66028;53.558;9.950;2023-12-20T11:32:28;7.07;;;0.80;;
77089;SDS011;66028;53.558;9.950;2023-12-20T11:34:54;4.37;;;0.67;;
77089;SDS011;66028;53.558;9.950;2023-12-20T11:37:21;8.63;;;1.20;;
77089;SDS011;66028;53.558;9.950;2023-12-20T11:40:11;4.55;;;1.00;;
77089;SDS011;66028;53.558;9.950;2023-12-20T11:42:49;5.35;;;0.80;;
77089;SDS011;66028;53.558;9.950;2023-12-20T11:45:18;3.67;;;0.88;;
77089;SDS011;66028;53.558;9.950;2023-12-20T11:47:47;6.80;;;0.82;;
77089;SDS011;66028;53.558;9.950;2023-12-20T11:50:14;6.18;;;1.17;;
77089;SDS011;66028;53.558;9.950;2023-12-20T11:52:40;9.05;;;1.30;;
77089;SDS011;66028;53.558;9.950;2023-12-20T11:55:05;6.53;;;1.20;;
77089;SDS011;66028;53.558;9.950;2023-12-20T11:57:31;6.15;;;1.02;;
77089;SDS011;66028;53.558;9.950;2023-12-20T11:59:57;7.53;;;1.13;;
77089;SDS011;66028;53.558;9.950;2023-12-20T12:02:22;7.77;;;1.30;;
77089;SDS011;66028;53.558;9.950;2023-12-20T12:04:48;4.32;;;0.77;;
77089;SDS011;66028;53.558;9.950;2023-12-20T12:07:15;5.47;;;1.00;;
77089;SDS011;66028;53.558;9.950;2023-12-20T12:09:41;4.32;;;1.25;;
77089;SDS011;66028;53.558;9.950;2023-12-20T12:12:06;5.90;;;0.87;;
77089;SDS011;66028;53.558;9.950;2023-12-20T12:14:32;9.40;;;2.13;;
77089;SDS011;66028;53.558;9.950;2023-12-20T12:16:58;6.20;;;0.83;;
77089;SDS011;66028;53.558;9.950;2023-12-20T12:19:23;6.10;;;1.20;;
77089;SDS011;66028;53.558;9.950;2023-12-20T12:21:50;7.03;;;1.67;;
77089;SDS011;66028;53.558;9.950;2023-12-20T12:24:15;5.88;;;1.35;;
77089;SDS011;66028;53.558;9.950;2023-12-20T12:26:49;8.77;;;1.77;;
77089;SDS011;66028;53.558;9.950;2023-12-20T12:29:18;14.10;;;2.13;;
77089;SDS011;66028;53.558;9.950;2023-12-20T12:31:43;12.87;;;2.23;;
77089;SDS011;66028;53.558;9.950;2023-12-20T12:34:08;7.63;;;1.13;;
77089;SDS011;66028;53.558;9.950;2023-12-20T12:36:34;6.07;;;0.90;;
77089;SDS011;66028;53.558;9.950;2023-12-20T12:39:02;13.38;;;2.45;;
77089;SDS011;66028;53.558;9.950;2023-12-20T12:41:29;5.03;;;0.80;;
77089;SDS011;66028;53.558;9.950;2023-12-20T12:43:55;12.23;;;2.28;;
77089;SDS011;66028;53.558;9.950;2023-12-20T12:46:20;8.70;;;1.23;;
77089;SDS011;66028;53.558;9.950;2023-12-20T12:48:46;9.77;;;1.27;;
77089;SDS011;66028;53.558;9.950;2023-12-20T12:51:11;10.85;;;1.75;;
77089;SDS011;66028;53.558;9.950;2023-12-20T12:53:38;6.32;;;1.40;;
77089;SDS011;66028;53.558;9.950;2023-12-20T12:56:04;8.85;;;1.58;;
77089;SDS011;66028;53.558;9.950;2023-12-20T12:58:29;8.88;;;1.77;;
77089;SDS011;66028;53.558;9.950;2023-12-20T13:00:55;8.88;;;1.00;;
77089;SDS011;66028;53.558;9.950;2023-12-20T13:03:20;6.17;;;1.23;;
77089;SDS011;66028;53.558;9.950;2023-12-20T13:05:45;6.27;;;1.03;;
77089;SDS011;66028;53.558;9.950;2023-12-20T13:08:12;10.82;;;1.15;;
77089;SDS011;66028;53.558;9.950;2023-12-20T13:10:39;8.05;;;1.25;;
77089;SDS011;66028;53.558;9.950;2023-12-20T13:13:04;8.80;;;1.00;;
77089;SDS011;66028;53.558;9.950;2023-12-20T13:15:29;9.55;;;1.30;;
77089;SDS011;66028;53.558;9.950;2023-12-20T13:17:55;8.93;;;1.80;;
77089;SDS011;66028;53.558;9.950;2023-12-20T13:20:20;12.83;;;1.63;;
77089;SDS011;66028;53.558;9.950;2023-12-20T13:25:12;6.68;;;1.95;;
77089;SDS011;66028;53.558;9.950;2023-12-20T13:27:38;14.32;;;2.03;;
77089;SDS011;66028;53.558;9.950;2023-12-20T13:30:03;7.50;;;2.07;;
77089;SDS011;66028;53.558;9.950;2023-12-20T13:32:29;7.20;;;1.52;;
77089;SDS011;66028;53.558;9.950;2023-12-20T13:34:55;11.75;;;1.80;;
77089;SDS011;66028;53.558;9.950;2023-12-20T13:37:21;9.73;;;1.45;;
77089;SDS011;66028;53.558;9.950;2023-12-20T13:39:46;17.77;;;2.57;;
77089;SDS011;66028;53.558;9.950;2023-12-20T13:42:12;9.03;;;1.97;;
77089;SDS011;66028;53.558;9.950;2023-12-20T13:44:37;10.83;;;1.83;;
77089;SDS011;66028;53.558;9.950;2023-12-20T13:47:02;9.67;;;2.07;;
77089;SDS011;66028;53.558;9.950;2023-12-20T13:51:54;7.60;;;1.50;;
77089;SDS011;66028;53.558;9.950;2023-12-20T13:54:22;7.80;;;1.95;;
77089;SDS011;66028;53.558;9.950;2023-12-20T13:56:48;11.52;;;2.25;;
77089;SDS011;66028;53.558;9.950;2023-12-20T13:59:13;23.77;;;2.07;;
77089;SDS011;66028;53.558;9.950;2023-12-20T14:01:40;10.88;;;2.60;;
77089;SDS011;66028;53.558;9.950;2023-12-20T14:04:05;13.10;;;2.27;;
77089;SDS011;66028;53.558;9.950;2023-12-20T14:06:31;11.77;;;1.95;;
77089;SDS011;66028;53.558;9.950;2023-12-20T14:08:57;8.40;;;2.53;;
77089;SDS011;66028;53.558;9.950;2023-12-20T14:11:25;14.68;;;2.63;;
77089;SDS011;66028;53.558;9.950;2023-12-20T14:13:50;12.07;;;3.10;;
77089;SDS011;66028;53.558;9.950;2023-12-20T14:16:15;11.87;;;2.37;;
77089;SDS011;66028;53.558;9.950;2023-12-20T14:18:41;10.73;;;2.47;;
77089;SDS011;66028;53.558;9.950;2023-12-20T14:21:06;10.87;;;2.17;;
77089;SDS011;66028;53.558;9.950;2023-12-20T14:23:32;13.05;;;3.03;;
77089;SDS011;66028;53.558;9.950;2023-12-20T14:28:24;9.15;;;2.15;;
77089;SDS011;66028;53.558;9.950;2023-12-20T14:30:50;15.43;;;3.22;;
77089;SDS011;66028;53.558;9.950;2023-12-20T14:33:15;16.20;;;3.23;;
77089;SDS011;66028;53.558;9.950;2023-12-20T14:35:40;10.33;;;2.03;;
77089;SDS011;66028;53.558;9.950;2023-12-20T14:38:07;8.55;;;1.67;;
77089;SDS011;66028;53.558;9.950;2023-12-20T14:40:33;17.92;;;2.78;;
77089;SDS011;66028;53.558;9.950;2023-12-20T14:42:58;7.87;;;2.17;;
77089;SDS011;66028;53.558;9.950;2023-12-20T14:45:24;13.77;;;3.20;;
77089;SDS011;66028;53.558;9.950;2023-12-20T14:47:49;8.43;;;1.97;;
77089;SDS011;66028;53.558;9.950;2023-12-20T14:50:14;9.07;;;2.70;;
77089;SDS011;66028;53.558;9.950;2023-12-20T14:52:43;12.98;;;2.63;;
77089;SDS011;66028;53.558;9.950;2023-12-20T14:55:10;10.38;;;2.05;;
77089;SDS011;66028;53.558;9.950;2023-12-20T14:57:35;11.70;;;3.07;;